Terminal Aerodrome Forecast
Issued by NWS

Home | Current Version | Previous Version | Text Only | Print | Product List | Glossary On
Versions: 1 2 3 4 5 6 7 8 9 10 11 12 13 14 15 16 17 18 19 20 21 22
000
FTUS42 KFFC 290520
TAFPDK
TAF
KPDK 290520Z 2906/3006 26005KT P6SM FEW080 BKN250
     FM291200 26004KT P6SM BKN015
     FM291500 28007KT P6SM SCT035
     FM291800 27009KT P6SM SCT050 PROB30 2919/2923 6SM -TSRA
      BKN035CB
     FM300100 26004KT P6SM SCT070=

USA.gov is the U.S. government's official web portal to all federal, state and local government web resources and services.